Petersburg James A Johnson Airport Petersburg US
ICAO: PAPG
IATA:
Category: Medium
Scheduled Services:

Elevation: 111 ft
TransAlt. 18000 ft.

Airport Communications:
AWOS 3:125.8
ANCHORAGE CNTR:118
CTAF:122.5
SITKA RDO:122.35

PAPG Zoom In..

Runways:

(A) RW 05 length 6400 ft width 150 ft
---- / hdg 50

(B) RW 23 length 6400 ft width 150 ft
---- / hdg 230

Location; PAPG
Day. 22 / Time. 03.56 Zulu
* Altimeter: 29.48
* Temperature: -02° c. -28.4°f.
* Wind from: 270° Speed 03 kn.
Dewpoint: -03° c.
Visibility: 10 Statute Miles.
Clouds: Few 3500 ft.

PAPG 220356Z 27003KT 10SM FEW035 M02/M03 A2948 RMK AO2 SLP987 T10221028


Wind From 270°
Speed 03 kn.

jpsM music video
CHECK IT OUT

jpsM - It Moves..

 
jpsmedia.com for Web Design  worldairports.se 2018   terms of use